Time;durP1;ratioP1;P1;durP2;ratioP2;P2;SDS_P1;SDS_P2;PMS_P1;PMS_P2;Temp;Humidity;BMP_temperature;BMP_pressure;BME280_temperature;BME280_humidity;BME280_pressure;Samples;Min_cycle;Max_cycle;Signal;HPM_P1;HPM_P2
2024/03/14 00:02:00;;;;;;;8.52;4.85;;;9.30;99.90;;;;;;5088319;28;20020;-75
2024/03/14 00:04:26;;;;;;;6.80;4.65;;;9.30;99.90;;;;;;5089900;28;20522;-75
2024/03/14 00:06:52;;;;;;;6.20;4.60;;;9.30;99.90;;;;;;5086246;28;20032;-75
2024/03/14 00:09:17;;;;;;;9.50;4.55;;;9.30;99.90;;;;;;5081792;28;20499;-75
2024/03/14 00:11:44;;;;;;;5.90;4.00;;;9.30;99.90;;;;;;5093348;28;20017;-75
2024/03/14 00:14:10;;;;;;;5.88;3.63;;;9.20;99.90;;;;;;5091443;28;20016;-75
2024/03/14 00:16:36;;;;;;;6.75;4.50;;;9.20;99.90;;;;;;5093803;28;20032;-75
2024/03/14 00:19:02;;;;;;;6.40;4.65;;;9.20;99.90;;;;;;5094251;28;20490;-75
2024/03/14 00:21:29;;;;;;;7.70;4.78;;;9.10;99.90;;;;;;5092874;28;20089;-75
2024/03/14 00:23:54;;;;;;;8.18;5.13;;;9.10;99.90;;;;;;5093463;28;20028;-75
2024/03/14 00:26:20;;;;;;;8.43;5.03;;;9.00;99.90;;;;;;5080494;28;20189;-75
2024/03/14 00:28:52;;;;;;;10.05;6.72;;;9.00;99.90;;;;;;5073682;28;20115;-75
2024/03/14 00:31:19;;;;;;;9.38;5.75;;;9.00;99.90;;;;;;5073252;28;20078;-75
2024/03/14 00:33:45;;;;;;;7.35;5.55;;;9.00;99.90;;;;;;5073443;28;20077;-75
2024/03/14 00:36:11;;;;;;;10.40;5.93;;;8.90;99.90;;;;;;5075486;28;20029;-75
2024/03/14 00:38:37;;;;;;;11.38;6.90;;;8.90;99.90;;;;;;5054914;28;20032;-75
2024/03/14 00:41:04;;;;;;;7.35;5.65;;;8.90;99.90;;;;;;5073136;28;20035;-75
2024/03/14 00:43:30;;;;;;;9.20;5.80;;;8.80;99.90;;;;;;5073310;28;20017;-75
2024/03/14 00:45:56;;;;;;;7.47;5.50;;;8.70;99.90;;;;;;5071456;28;20051;-75
2024/03/14 00:48:23;;;;;;;7.47;5.97;;;8.60;99.90;;;;;;5073372;28;20028;-75
2024/03/14 00:50:49;;;;;;;7.93;5.32;;;8.60;99.90;;;;;;5077944;28;20033;-75
2024/03/14 00:53:15;;;;;;;12.90;6.20;;;8.50;99.90;;;;;;5073998;28;20046;-75
2024/03/14 00:55:41;;;;;;;9.40;6.50;;;8.40;99.90;;;;;;5071935;28;20119;-74
2024/03/14 00:58:07;;;;;;;11.70;7.70;;;8.40;99.90;;;;;;5072781;28;20108;-75
2024/03/14 01:00:32;;;;;;;10.70;7.50;;;8.40;99.90;;;;;;5074558;28;20119;-75
2024/03/14 01:03:00;;;;;;;11.65;7.47;;;8.40;99.90;;;;;;5072041;28;20536;-75
2024/03/14 01:05:25;;;;;;;10.27;7.40;;;8.40;99.90;;;;;;5055613;28;20412;-75
2024/03/14 01:07:51;;;;;;;10.15;7.38;;;8.40;99.90;;;;;;5065748;28;20024;-75
2024/03/14 01:10:17;;;;;;;10.43;7.95;;;8.50;99.90;;;;;;5072313;28;20028;-75
2024/03/14 01:12:43;;;;;;;10.10;7.97;;;8.50;99.90;;;;;;5072193;28;20013;-75
2024/03/14 01:15:13;;;;;;;13.32;7.82;;;8.50;99.90;;;;;;5072542;28;20044;-75
2024/03/14 01:17:40;;;;;;;10.18;7.88;;;8.60;99.90;;;;;;5072384;28;20020;-74
2024/03/14 01:20:10;;;;;;;9.88;7.60;;;8.60;99.90;;;;;;5072557;28;20035;-74
2024/03/14 01:22:36;;;;;;;10.23;7.53;;;8.60;99.90;;;;;;5072593;28;20024;-74
2024/03/14 01:25:05;;;;;;;12.50;9.18;;;8.70;99.90;;;;;;5072672;28;20205;-74
2024/03/14 01:27:31;;;;;;;9.67;7.60;;;8.70;99.90;;;;;;5073590;28;20113;-75
2024/03/14 01:29:56;;;;;;;8.57;7.05;;;8.70;99.90;;;;;;5071824;28;20296;-75
2024/03/14 01:32:24;;;;;;;10.65;7.38;;;8.70;99.90;;;;;;5055287;28;20506;-75
2024/03/14 01:34:50;;;;;;;10.73;7.80;;;8.70;99.90;;;;;;5074439;28;20028;-75
2024/03/14 01:37:16;;;;;;;11.98;7.63;;;8.70;99.90;;;;;;5074975;28;20047;-74
2024/03/14 01:39:43;;;;;;;9.73;7.50;;;8.80;99.90;;;;;;5072610;28;20021;-74
2024/03/14 01:42:13;;;;;;;8.80;7.63;;;8.80;99.90;;;;;;5073142;28;20021;-74
2024/03/14 01:44:45;;;;;;;11.15;8.60;;;8.80;99.90;;;;;;5071513;28;20052;-74
2024/03/14 01:47:11;;;;;;;11.90;7.47;;;8.80;99.90;;;;;;5072035;28;20498;-74
2024/03/14 01:49:36;;;;;;;11.40;8.00;;;8.80;99.90;;;;;;5084888;28;20035;-74
2024/03/14 01:52:02;;;;;;;9.27;7.30;;;8.70;99.90;;;;;;5085993;28;20024;-75
2024/03/14 01:54:28;;;;;;;12.63;9.55;;;8.70;99.90;;;;;;5093253;28;20004;-74
2024/03/14 01:57:01;;;;;;;9.90;7.63;;;8.70;99.90;;;;;;5093109;28;20024;-74
2024/03/14 01:59:27;;;;;;;11.27;8.18;;;8.70;99.90;;;;;;5093000;28;20048;-74
2024/03/14 02:01:56;;;;;;;13.07;9.05;;;8.70;99.90;;;;;;5057661;28;20437;-74
2024/03/14 02:04:28;;;;;;;11.20;8.70;;;8.60;99.90;;;;;;5072554;28;20043;-74
2024/03/14 02:07:08;;;;;;;13.82;8.70;;;8.60;99.90;;;;;;5052176;28;20024;-75
2024/03/14 02:09:34;;;;;;;12.60;9.25;;;8.60;99.90;;;;;;5069308;28;20492;-75
2024/03/14 02:12:04;;;;;;;10.18;8.80;;;8.60;99.90;;;;;;5052644;28;20024;-75
2024/03/14 02:14:30;;;;;;;13.47;9.53;;;8.60;99.90;;;;;;5050902;28;20025;-75
2024/03/14 02:16:57;;;;;;;11.50;9.82;;;8.50;99.90;;;;;;5064549;28;20087;-75
2024/03/14 02:19:22;;;;;;;12.70;9.52;;;8.50;99.90;;;;;;5068636;28;20032;-75
2024/03/14 02:21:48;;;;;;;12.98;10.60;;;8.50;99.90;;;;;;5061588;28;20396;-75
2024/03/14 02:24:17;;;;;;;12.10;9.98;;;8.50;99.90;;;;;;5053810;28;20025;-76
2024/03/14 02:26:43;;;;;;;14.05;9.98;;;8.50;99.90;;;;;;5051026;28;20041;-75
2024/03/14 02:29:09;;;;;;;12.05;9.60;;;8.40;99.90;;;;;;5048119;28;20036;-75
2024/03/14 02:31:36;;;;;;;15.85;10.13;;;8.40;99.90;;;;;;5073947;28;20016;-75
2024/03/14 02:34:06;;;;;;;12.43;9.95;;;8.30;99.90;;;;;;5087341;28;20029;-75
2024/03/14 02:36:32;;;;;;;12.85;10.13;;;8.20;99.90;;;;;;5091193;28;20031;-76
2024/03/14 02:38:58;;;;;;;13.57;9.52;;;8.20;99.90;;;;;;5103115;28;20018;-75
2024/03/14 02:41:26;;;;;;;12.20;9.73;;;8.20;99.90;;;;;;5097438;28;20016;-74
2024/03/14 02:43:53;;;;;;;11.98;9.57;;;8.20;99.90;;;;;;5107656;28;20092;-76
2024/03/14 02:46:20;;;;;;;13.13;9.80;;;8.20;99.90;;;;;;5094646;28;20132;-75
2024/03/14 02:48:46;;;;;;;12.93;9.68;;;8.20;99.90;;;;;;5079941;28;20067;-75
2024/03/14 02:51:12;;;;;;;14.63;10.48;;;8.10;99.90;;;;;;5079984;28;20020;-75
2024/03/14 02:53:39;;;;;;;14.38;10.13;;;8.00;99.90;;;;;;5092702;28;20441;-75
2024/03/14 02:56:09;;;;;;;14.55;9.60;;;8.00;99.90;;;;;;5075552;28;20075;-74
2024/03/14 02:58:38;;;;;;;;;;;8.00;99.90;;;;;;5074288;28;20103;-74
2024/03/14 03:01:08;;;;;;;12.13;8.68;;;8.00;99.90;;;;;;5068582;28;19915;-74
2024/03/14 03:03:53;;;;;;;10.90;8.88;;;8.00;99.90;;;;;;5091659;28;20126;-74
2024/03/14 03:06:20;;;;;;;10.88;8.05;;;7.90;99.90;;;;;;5091097;28;20016;-74
2024/03/14 03:08:45;;;;;;;11.85;9.00;;;7.80;99.90;;;;;;5081703;28;20036;-76
2024/03/14 03:11:12;;;;;;;17.00;9.95;;;7.70;99.90;;;;;;5086166;28;20542;-76
2024/03/14 03:13:39;;;;;;;14.85;10.48;;;7.70;99.90;;;;;;5078205;28;20012;-77
2024/03/14 03:16:05;;;;;;;13.15;9.38;;;7.50;99.90;;;;;;5081869;28;20021;-77
2024/03/14 03:18:33;;;;;;;15.75;9.23;;;7.50;99.90;;;;;;5087519;28;20031;-77
2024/03/14 03:20:59;;;;;;;10.60;8.52;;;7.40;99.90;;;;;;5085383;28;20024;-77
2024/03/14 03:23:25;;;;;;;14.05;10.43;;;7.40;99.90;;;;;;5057814;28;20036;-76
2024/03/14 03:25:51;;;;;;;14.60;9.50;;;7.30;99.90;;;;;;5078903;28;20437;-77
2024/03/14 03:28:16;;;;;;;11.55;9.07;;;7.30;99.90;;;;;;5090742;28;20077;-77
2024/03/14 03:30:43;;;;;;;12.50;8.82;;;7.30;99.90;;;;;;5089903;28;20439;-77
2024/03/14 03:33:16;;;;;;;11.68;9.05;;;7.30;99.90;;;;;;5072964;28;20475;-77
2024/03/14 03:35:43;;;;;;;11.52;8.23;;;7.20;99.90;;;;;;5072714;28;20364;-77
2024/03/14 03:38:09;;;;;;;12.18;8.80;;;7.20;99.90;;;;;;5083049;28;20055;-76
2024/03/14 03:40:36;;;;;;;13.65;8.82;;;7.20;99.90;;;;;;5090007;28;20075;-77
2024/03/14 03:43:05;;;;;;;11.82;8.55;;;7.10;99.90;;;;;;5089628;28;20476;-76
2024/03/14 03:45:32;;;;;;;12.98;8.18;;;7.10;99.90;;;;;;5083812;28;20027;-76
2024/03/14 03:47:58;;;;;;;12.38;8.73;;;7.10;99.90;;;;;;5089560;28;20020;-76
2024/03/14 03:50:24;;;;;;;9.52;8.00;;;7.10;99.90;;;;;;5089918;28;20030;-76
2024/03/14 03:52:50;;;;;;;10.77;7.68;;;7.10;99.90;;;;;;5084144;28;20086;-76
2024/03/14 03:55:17;;;;;;;13.25;9.35;;;7.00;99.90;;;;;;5082482;28;20027;-77
2024/03/14 03:57:44;;;;;;;14.05;8.43;;;7.00;99.90;;;;;;5089721;28;20475;-76
2024/03/14 04:02:55;;;;;;;14.13;8.27;;;6.90;99.90;;;;;;5089240;28;20414;-76
2024/03/14 04:05:25;;;;;;;11.25;8.27;;;6.90;99.90;;;;;;5090269;28;20059;-76
2024/03/14 04:07:51;;;;;;;11.50;9.15;;;6.90;99.90;;;;;;5071579;28;20036;-77
2024/03/14 04:10:17;;;;;;;12.18;8.93;;;6.80;99.90;;;;;;5090047;28;20450;-77
2024/03/14 04:12:47;;;;;;;15.27;9.38;;;6.90;99.90;;;;;;5089882;28;20044;-77
2024/03/14 04:15:13;;;;;;;15.07;9.23;;;6.90;99.90;;;;;;5075520;28;20016;-77
2024/03/14 04:17:38;;;;;;;15.25;8.93;;;6.90;99.90;;;;;;5071492;28;20080;-76
2024/03/14 04:20:11;;;;;;;15.00;9.63;;;6.90;99.90;;;;;;5071372;28;20027;-76
2024/03/14 04:22:40;;;;;;;13.05;9.23;;;6.90;99.90;;;;;;5086916;28;20066;-76
2024/03/14 04:25:11;;;;;;;12.18;9.52;;;6.90;99.90;;;;;;5089279;28;20047;-76
2024/03/14 04:27:47;;;;;;;12.80;9.10;;;6.90;99.90;;;;;;5089802;28;20564;-77
2024/03/14 04:30:17;;;;;;;11.77;8.60;;;6.90;99.90;;;;;;5089717;28;20121;-77
2024/03/14 04:32:45;;;;;;;11.27;9.23;;;6.90;99.90;;;;;;5089784;28;20012;-77
2024/03/14 04:35:11;;;;;;;15.07;9.85;;;6.90;99.90;;;;;;5072129;28;20055;-77
2024/03/14 04:37:40;;;;;;;11.00;8.38;;;6.80;99.90;;;;;;5081437;28;20024;-77
2024/03/14 04:40:12;;;;;;;11.70;8.88;;;6.80;99.90;;;;;;5089290;28;20040;-77
2024/03/14 04:42:41;;;;;;;13.35;9.70;;;6.90;99.90;;;;;;5087943;28;20193;-76
2024/03/14 04:45:11;;;;;;;12.37;9.33;;;6.80;99.90;;;;;;5074642;28;20517;-77
2024/03/14 04:47:38;;;;;;;13.00;9.85;;;6.80;99.90;;;;;;5057924;28;20032;-76
2024/03/14 04:50:04;;;;;;;12.45;9.43;;;6.90;99.90;;;;;;5089438;28;20016;-76
2024/03/14 04:52:31;;;;;;;13.80;9.45;;;6.80;99.90;;;;;;5079937;28;20024;-76
2024/03/14 04:54:57;;;;;;;11.23;8.55;;;6.80;99.90;;;;;;5088603;28;20192;-76
2024/03/14 04:57:23;;;;;;;10.45;8.25;;;6.90;99.90;;;;;;5075801;28;20851;-76
2024/03/14 04:59:48;;;;;;;11.10;8.25;;;6.90;99.90;;;;;;5074481;28;20028;-77
2024/03/14 05:02:14;;;;;;;9.10;7.57;;;7.00;99.90;;;;;;5075101;28;20028;-77
2024/03/14 05:04:41;;;;;;;9.35;7.82;;;7.00;99.90;;;;;;5092700;28;20024;-76
2024/03/14 05:07:09;;;;;;;10.63;7.60;;;7.00;99.90;;;;;;5093511;28;20020;-77
2024/03/14 05:09:34;;;;;;;9.68;7.90;;;7.10;99.90;;;;;;5090522;28;20043;-77
2024/03/14 05:12:00;;;;;;;8.20;6.82;;;7.10;99.90;;;;;;5092254;28;20678;-76
2024/03/14 05:14:26;;;;;;;10.30;8.10;;;7.10;99.90;;;;;;5092981;28;20024;-77
2024/03/14 05:16:52;;;;;;;8.13;6.75;;;7.10;99.90;;;;;;5089755;28;20059;-76
2024/03/14 05:19:20;;;;;;;11.10;7.60;;;7.10;99.90;;;;;;5075323;28;20019;-77
2024/03/14 05:21:46;;;;;;;9.38;7.38;;;7.10;99.90;;;;;;5084264;28;20039;-76
2024/03/14 05:24:15;;;;;;;9.07;7.30;;;7.10;99.90;;;;;;5084927;28;20059;-77
2024/03/14 05:26:42;;;;;;;9.07;6.80;;;7.10;99.90;;;;;;5090911;28;20071;-76
2024/03/14 05:29:07;;;;;;;8.45;6.95;;;7.00;99.90;;;;;;5092503;28;20012;-77
2024/03/14 05:31:35;;;;;;;10.85;7.70;;;7.00;99.90;;;;;;5057714;28;20035;-77
2024/03/14 05:34:01;;;;;;;12.32;7.90;;;7.00;99.90;;;;;;5092380;28;20027;-76
2024/03/14 05:36:27;;;;;;;9.95;8.00;;;7.00;99.90;;;;;;5070219;28;20025;-76
2024/03/14 05:38:52;;;;;;;12.02;8.13;;;7.00;99.90;;;;;;5088420;28;20069;-77
2024/03/14 05:41:19;;;;;;;10.73;8.73;;;6.90;99.90;;;;;;5091555;28;20020;-76
2024/03/14 05:43:45;;;;;;;10.57;7.93;;;6.90;99.90;;;;;;5092009;28;20035;-77
2024/03/14 05:46:13;;;;;;;10.43;8.35;;;6.90;99.90;;;;;;5091932;28;20028;-77
2024/03/14 05:48:39;;;;;;;13.23;9.43;;;6.80;99.90;;;;;;5091600;28;20075;-76
2024/03/14 05:51:09;;;;;;;12.73;8.90;;;6.90;99.90;;;;;;5089627;28;20455;-76
2024/03/14 05:53:36;;;;;;;13.68;10.25;;;6.80;99.90;;;;;;5092356;28;20008;-76
2024/03/14 05:56:01;;;;;;;12.13;9.27;;;6.70;99.90;;;;;;5091174;28;20039;-76
2024/03/14 05:58:28;;;;;;;13.38;9.45;;;6.70;99.90;;;;;;5092745;28;20374;-77
2024/03/14 06:00:55;;;;;;;12.77;9.75;;;6.70;99.90;;;;;;5089959;28;20039;-77
2024/03/14 06:03:21;;;;;;;14.77;10.30;;;6.70;99.90;;;;;;5086300;28;20016;-77
2024/03/14 06:05:52;;;;;;;15.77;11.57;;;6.70;99.90;;;;;;5090809;28;20024;-77
2024/03/14 06:08:19;;;;;;;14.80;11.20;;;6.60;99.90;;;;;;5091427;28;20056;-76
2024/03/14 06:10:45;;;;;;;16.48;11.57;;;6.60;99.90;;;;;;5072690;28;20027;-77
2024/03/14 06:13:11;;;;;;;14.02;10.60;;;6.60;99.90;;;;;;5088810;28;20065;-73
2024/03/14 06:15:38;;;;;;;14.00;10.23;;;6.60;99.90;;;;;;5078067;28;20016;-73
2024/03/14 06:18:05;;;;;;;17.35;11.98;;;6.60;99.90;;;;;;5091076;28;20019;-73
2024/03/14 06:20:34;;;;;;;18.75;12.88;;;6.70;99.90;;;;;;5090959;28;20016;-74
2024/03/14 06:23:00;;;;;;;16.70;12.07;;;6.70;99.90;;;;;;5088060;28;20032;-75
2024/03/14 06:25:26;;;;;;;17.88;11.75;;;6.70;99.90;;;;;;5080083;28;20032;-73
2024/03/14 06:27:54;;;;;;;19.83;11.82;;;6.70;99.90;;;;;;5046485;28;20463;-73
2024/03/14 06:30:22;;;;;;;17.60;12.05;;;6.80;99.90;;;;;;5055708;28;20036;-71
2024/03/14 06:32:49;;;;;;;18.27;12.18;;;6.80;99.90;;;;;;5052212;28;20025;-71
2024/03/14 06:35:15;;;;;;;17.08;12.57;;;6.90;99.90;;;;;;5068483;28;20082;-70
2024/03/14 06:37:41;;;;;;;19.75;13.45;;;6.90;99.90;;;;;;5061504;28;20020;-70
2024/03/14 06:40:08;;;;;;;20.38;13.45;;;7.00;99.90;;;;;;5053249;28;20013;-72
2024/03/14 06:42:34;;;;;;;23.05;14.82;;;7.00;99.90;;;;;;5064189;28;20498;-71
2024/03/14 06:45:02;;;;;;;21.75;14.45;;;7.10;99.90;;;;;;5059500;28;20036;-71
2024/03/14 06:47:29;;;;;;;21.20;13.98;;;7.10;99.90;;;;;;5054178;28;20031;-71
2024/03/14 06:50:02;;;;;;;24.10;15.27;;;7.20;99.90;;;;;;5062814;28;20021;-71
2024/03/14 06:52:30;;;;;;;23.33;14.63;;;7.30;99.90;;;;;;5063081;28;20023;-72
2024/03/14 06:54:55;;;;;;;22.40;14.80;;;7.30;99.90;;;;;;5040457;28;20079;-71
2024/03/14 06:57:21;;;;;;;20.88;14.30;;;7.50;99.90;;;;;;5036530;28;20030;-70
2024/03/14 06:59:52;;;;;;;17.40;12.30;;;7.50;99.90;;;;;;5061902;28;20029;-71
2024/03/14 07:02:21;;;;;;;18.48;13.07;;;7.60;99.90;;;;;;5060626;28;20025;-70
2024/03/14 07:04:51;;;;;;;18.63;13.13;;;7.70;99.90;;;;;;5058758;28;20025;-70
2024/03/14 07:07:17;;;;;;;;;;;7.70;99.90;;;;;;5052031;28;20028;-70
2024/03/14 07:09:43;;;;;;;21.15;13.77;;;7.80;99.90;;;;;;5049870;28;19905;-70
2024/03/14 07:12:11;;;;;;;22.05;14.70;;;7.80;99.90;;;;;;5055356;28;20032;-71
2024/03/14 07:14:38;;;;;;;20.27;13.77;;;7.90;99.90;;;;;;5036453;28;20051;-71
2024/03/14 07:17:03;;;;;;;19.27;13.32;;;8.00;99.90;;;;;;5045937;28;20033;-71
2024/03/14 07:19:29;;;;;;;19.80;13.35;;;8.00;99.90;;;;;;5069697;28;20442;-70
2024/03/14 07:21:55;;;;;;;20.50;14.27;;;8.00;99.90;;;;;;5042976;28;20037;-71
2024/03/14 07:24:21;;;;;;;20.95;13.80;;;8.10;99.90;;;;;;5050221;28;20025;-70
2024/03/14 07:26:47;;;;;;;17.50;12.75;;;8.20;99.90;;;;;;5073342;28;20401;-71
2024/03/14 07:29:13;;;;;;;23.60;14.32;;;8.20;99.90;;;;;;5072701;28;20031;-71
2024/03/14 07:31:42;;;;;;;18.55;13.88;;;8.40;99.90;;;;;;5053652;28;20028;-71
2024/03/14 07:34:12;;;;;;;18.45;12.90;;;8.40;99.90;;;;;;5088123;28;20016;-71
2024/03/14 07:36:41;;;;;;;16.65;12.77;;;8.50;99.90;;;;;;5080444;28;20021;-71
2024/03/14 07:39:10;;;;;;;20.20;12.95;;;8.60;99.90;;;;;;5077092;28;20572;-70
2024/03/14 07:41:40;;;;;;;17.20;13.13;;;8.70;99.90;;;;;;5075232;28;20040;-71
2024/03/14 07:44:06;;;;;;;18.77;13.77;;;8.80;99.90;;;;;;5082194;28;20411;-71
2024/03/14 07:46:32;;;;;;;16.38;12.35;;;8.90;99.90;;;;;;5073374;28;20036;-71
2024/03/14 07:48:58;;;;;;;15.45;11.57;;;9.00;99.90;;;;;;5086707;28;20031;-71
2024/03/14 07:51:25;;;;;;;17.08;13.00;;;9.10;99.90;;;;;;5085926;28;20017;-71
2024/03/14 07:53:51;;;;;;;16.52;12.65;;;9.10;99.90;;;;;;5078430;28;20024;-71
2024/03/14 07:56:20;;;;;;;16.73;12.50;;;9.20;99.90;;;;;;5035896;28;20036;-71
2024/03/14 07:58:47;;;;;;;15.77;12.10;;;9.30;99.90;;;;;;5077364;28;20042;-72
2024/03/14 08:01:16;;;;;;;16.80;12.75;;;9.30;99.90;;;;;;5033464;28;20124;-71
2024/03/14 08:03:52;;;;;;;15.40;11.82;;;9.50;99.90;;;;;;5074066;28;20031;-71
2024/03/14 08:06:18;;;;;;;16.60;12.88;;;9.60;99.90;;;;;;5079744;28;20029;-71
2024/03/14 08:08:45;;;;;;;16.77;12.48;;;9.70;99.90;;;;;;5073128;28;20023;-71
2024/03/14 08:11:13;;;;;;;13.30;11.05;;;9.70;99.90;;;;;;5051475;28;20021;-73
2024/03/14 08:13:39;;;;;;;15.10;11.52;;;9.90;99.90;;;;;;5071640;28;20016;-70
2024/03/14 08:16:14;;;;;;;14.23;11.30;;;9.90;99.90;;;;;;5061109;28;20046;-70
2024/03/14 08:18:41;;;;;;;13.73;10.40;;;9.90;99.90;;;;;;5065939;28;20169;-70
2024/03/14 08:21:09;;;;;;;14.50;11.07;;;10.00;99.90;;;;;;5083987;28;20026;-70
2024/03/14 08:23:35;;;;;;;14.65;11.27;;;10.10;99.90;;;;;;5056521;28;20058;-70
2024/03/14 08:26:01;;;;;;;16.77;10.93;;;10.20;99.90;;;;;;5067863;28;20049;-70
2024/03/14 08:28:26;;;;;;;14.20;10.00;;;10.30;99.90;;;;;;5062275;28;20032;-70
2024/03/14 08:30:52;;;;;;;12.75;9.75;;;10.40;99.90;;;;;;5071478;28;20082;-71
2024/03/14 08:33:18;;;;;;;14.65;11.05;;;10.40;99.90;;;;;;5077839;28;20383;-70
2024/03/14 08:35:44;;;;;;;17.27;11.90;;;10.40;99.90;;;;;;5091554;28;20020;-70
2024/03/14 08:38:13;;;;;;;14.45;10.23;;;10.50;99.90;;;;;;5084844;28;20097;-70
2024/03/14 08:40:39;;;;;;;15.52;11.52;;;10.50;99.90;;;;;;5077436;28;20062;-70
2024/03/14 08:43:12;;;;;;;17.63;11.75;;;10.60;99.90;;;;;;5078110;28;20474;-72
2024/03/14 08:45:38;;;;;;;15.48;10.30;;;10.60;99.90;;;;;;5088879;28;20028;-69
2024/03/14 08:48:11;;;;;;;13.27;9.77;;;10.60;99.90;;;;;;5081995;28;20499;-70
2024/03/14 08:50:40;;;;;;;11.88;9.05;;;10.60;99.90;;;;;;5076377;28;20015;-70
2024/03/14 08:53:12;;;;;;;6.30;5.28;;;10.60;99.90;;;;;;5089392;28;20111;-70
2024/03/14 08:55:54;;;;;;;7.20;5.22;;;10.70;99.90;;;;;;5067467;28;20383;-71
2024/03/14 08:58:29;;;;;;;8.15;6.68;;;10.80;99.90;;;;;;5077132;28;20473;-70
2024/03/14 09:00:59;;;;;;;9.65;4.72;;;11.00;99.90;;;;;;5071987;28;20033;-70
2024/03/14 09:03:25;;;;;;;6.82;5.18;;;11.10;99.90;;;;;;5088044;28;20017;-70
2024/03/14 09:05:50;;;;;;;4.70;4.20;;;11.30;99.90;;;;;;5084658;28;20030;-70
2024/03/14 09:08:21;;;;;;;6.63;4.32;;;11.30;99.90;;;;;;5089741;28;20391;-70
2024/03/14 09:10:47;;;;;;;5.75;4.88;;;11.50;99.90;;;;;;5090321;28;20023;-70
2024/03/14 09:13:14;;;;;;;5.32;3.80;;;11.60;99.90;;;;;;5086899;28;20024;-71
2024/03/14 09:15:41;;;;;;;5.95;3.80;;;11.70;99.90;;;;;;5073689;28;20028;-70
2024/03/14 09:18:07;;;;;;;4.80;3.70;;;12.00;99.90;;;;;;5065109;28;20020;-71
2024/03/14 09:20:39;;;;;;;6.65;4.40;;;12.20;99.90;;;;;;5084259;28;20490;-71
2024/03/14 09:23:05;;;;;;;4.93;3.65;;;12.30;99.90;;;;;;5082289;28;20369;-71
2024/03/14 09:25:30;;;;;;;5.05;3.83;;;12.40;99.90;;;;;;5051319;28;20040;-71
2024/03/14 09:27:59;;;;;;;5.15;3.25;;;12.50;99.90;;;;;;5059028;28;20876;-71
2024/03/14 09:30:25;;;;;;;3.70;3.20;;;12.70;99.90;;;;;;5042522;28;20120;-71
2024/03/14 09:32:53;;;;;;;4.13;3.00;;;12.80;99.90;;;;;;5062358;28;20017;-73
2024/03/14 09:35:28;;;;;;;5.72;3.83;;;12.80;99.90;;;;;;5061138;28;20056;-74
2024/03/14 09:37:54;;;;;;;4.38;3.47;;;12.80;99.90;;;;;;5064570;28;20546;-73
2024/03/14 09:40:21;;;;;;;3.88;3.30;;;12.90;99.90;;;;;;5057588;28;20033;-73
2024/03/14 09:42:56;;;;;;;3.97;3.15;;;13.00;99.90;;;;;;5062614;28;20028;-73
2024/03/14 09:45:23;;;;;;;3.35;2.70;;;13.10;99.90;;;;;;5055362;28;20013;-73
2024/03/14 09:47:51;;;;;;;4.32;2.83;;;13.30;99.90;;;;;;5049695;28;20028;-72
2024/03/14 09:50:20;;;;;;;2.38;2.17;;;13.40;99.90;;;;;;5070873;28;20039;-72
2024/03/14 09:52:48;;;;;;;5.05;2.83;;;13.60;99.90;;;;;;5040810;28;20407;-73
2024/03/14 09:55:17;;;;;;;3.70;2.78;;;13.80;99.90;;;;;;5065308;28;20025;-73
2024/03/14 09:57:43;;;;;;;3.10;2.57;;;13.80;99.90;;;;;;5042073;28;20024;-72
2024/03/14 10:00:11;;;;;;;2.95;2.33;;;13.90;99.90;;;;;;5060952;28;20069;-73
2024/03/14 10:02:42;;;;;;;2.22;2.03;;;13.90;99.90;;;;;;5068529;28;20017;-73
2024/03/14 10:05:18;;;;;;;2.60;2.40;;;;;;;;;;5061592;28;20488;-73
2024/03/14 10:07:46;;;;;;;4.05;2.80;;;14.10;99.90;;;;;;5058458;28;20507;-73
2024/03/14 10:10:13;;;;;;;4.40;2.50;;;14.10;99.90;;;;;;5052363;28;20028;-73
2024/03/14 10:12:47;;;;;;;3.70;2.40;;;14.20;99.90;;;;;;5044334;28;20032;-73
2024/03/14 10:15:13;;;;;;;2.35;2.15;;;14.10;99.90;;;;;;5061784;28;20484;-74
2024/03/14 10:17:43;;;;;;;4.57;2.17;;;14.20;99.90;;;;;;5003105;28;20040;-73
2024/03/14 10:20:14;;;;;;;2.95;2.53;;;14.40;99.90;;;;;;5068863;28;20357;-73
2024/03/14 10:22:48;;;;;;;6.55;2.35;;;14.50;99.90;;;;;;5059066;28;20522;-73
2024/03/14 10:25:23;;;;;;;2.25;2.05;;;14.50;99.90;;;;;;5058214;28;20054;-73
2024/03/14 10:27:51;;;;;;;3.25;1.92;;;14.60;99.90;;;;;;5090723;28;20028;-73
2024/03/14 10:30:18;;;;;;;3.22;1.90;;;14.70;99.90;;;;;;5087235;28;20017;-73
2024/03/14 10:32:49;;;;;;;2.70;2.10;;;14.80;99.90;;;;;;5083264;28;20500;-71
2024/03/14 10:35:16;;;;;;;2.50;1.95;;;14.90;99.90;;;;;;5089882;28;20052;-73
2024/03/14 10:37:49;;;;;;;1.95;1.77;;;14.90;99.90;;;;;;5095434;28;20071;-73
2024/03/14 10:40:29;;;;;;;2.13;1.80;;;14.90;99.90;;;;;;5090876;28;20032;-73
2024/03/14 10:42:55;;;;;;;2.78;2.10;;;14.90;99.90;;;;;;5071891;28;20032;-72
2024/03/14 10:45:23;;;;;;;3.28;1.95;;;15.00;99.90;;;;;;5078408;28;20372;-74
2024/03/14 10:47:50;;;;;;;4.38;2.13;;;;;;;;;;5069702;28;20027;-73
2024/03/14 10:50:17;;;;;;;5.88;2.25;;;;;;;;;;5089837;28;20043;-73
2024/03/14 10:52:49;;;;;;;3.97;1.63;;;;;;;;;;5089640;28;20051;-73
2024/03/14 10:55:21;;;;;;;2.72;2.15;;;15.80;99.90;;;;;;5090422;28;20016;-72
2024/03/14 10:57:48;;;;;;;2.63;1.80;;;15.90;99.90;;;;;;5086991;28;20020;-72
2024/03/14 11:00:19;;;;;;;2.10;1.90;;;16.00;99.90;;;;;;5094188;28;20046;-72
2024/03/14 11:02:50;;;;;;;1.38;1.25;;;16.10;99.90;;;;;;5093065;28;20525;-73
2024/03/14 11:05:22;;;;;;;5.15;1.88;;;16.20;99.90;;;;;;5103133;28;20024;-72
2024/03/14 11:07:51;;;;;;;4.15;1.90;;;16.30;99.90;;;;;;5074645;28;20025;-73
2024/03/14 11:10:31;;;;;;;1.67;1.55;;;16.30;99.90;;;;;;5090361;28;20056;-71
2024/03/14 11:13:20;;;;;;;2.63;1.38;;;16.30;99.90;;;;;;5089678;28;20243;-73
2024/03/14 11:15:48;;;;;;;3.33;1.77;;;16.40;99.90;;;;;;5077489;28;20035;-73
2024/03/14 11:18:16;;;;;;;1.58;1.30;;;16.40;99.90;;;;;;5092121;28;20076;-74
2024/03/14 11:20:48;;;;;;;2.05;1.40;;;16.40;99.90;;;;;;5083760;28;20008;-75
2024/03/14 11:23:20;;;;;;;5.47;1.70;;;16.50;99.90;;;;;;5045909;28;20048;-74
2024/03/14 11:25:52;;;;;;;2.13;1.60;;;16.60;99.90;;;;;;5079264;28;20098;-75
2024/03/14 11:28:19;;;;;;;1.30;1.05;;;16.70;99.90;;;;;;5063640;28;20475;-75
2024/03/14 11:30:51;;;;;;;2.60;1.45;;;16.70;99.90;;;;;;5084734;28;20028;-74
2024/03/14 11:33:19;;;;;;;2.10;1.60;;;16.80;99.90;;;;;;5052931;28;20420;-74
2024/03/14 11:35:47;;;;;;;6.10;2.25;;;;;;;;;;5076373;28;20031;-75
2024/03/14 11:38:18;;;;;;;1.17;1.08;;;;;;;;;;5083821;28;20028;-75
2024/03/14 11:40:46;;;;;;;1.67;1.10;;;;;;;;;;5076704;28;20025;-74
2024/03/14 11:43:33;;;;;;;;;;;;;;;;;;5091723;28;20529;-83
2024/03/14 11:45:59;;;;;;;3.22;1.25;;;;;;;;;;5087008;28;20026;-75
2024/03/14 11:48:28;;;;;;;1.92;1.10;;;;;;;;;;5064226;28;20436;-75
2024/03/14 11:50:55;;;;;;;1.30;1.20;;;;;;;;;;5054003;28;20066;-75
2024/03/14 11:53:22;;;;;;;1.45;1.15;;;;;;;;;;5058647;28;20112;-75
2024/03/14 11:55:48;;;;;;;1.17;1.00;;;;;;;;;;5083263;28;20099;-73
2024/03/14 11:58:15;;;;;;;1.52;0.82;;;;;;;;;;5084656;28;20031;-75
2024/03/14 12:00:47;;;;;;;0.93;0.88;;;;;;;;;;5074236;28;20396;-76
2024/03/14 12:03:22;;;;;;;1.27;1.10;;;18.10;99.90;;;;;;5084901;28;20066;-75
2024/03/14 12:06:10;;;;;;;0.82;0.82;;;18.40;99.90;;;;;;5061827;28;20016;-75
2024/03/14 12:08:37;;;;;;;1.00;0.80;;;18.70;99.90;;;;;;5076063;28;20025;-75
2024/03/14 12:11:04;;;;;;;1.60;1.10;;;19.00;99.90;;;;;;5086745;28;20023;-75
2024/03/14 12:13:29;;;;;;;1.27;1.10;;;19.20;99.90;;;;;;5083476;28;20055;-76
2024/03/14 12:16:02;;;;;;;1.85;0.98;;;19.70;99.90;;;;;;5085899;28;20043;-76
2024/03/14 12:18:32;;;;;;;0.80;0.80;;;19.90;99.90;;;;;;5094809;28;20028;-75
2024/03/14 12:21:01;;;;;;;1.48;0.70;;;19.90;99.90;;;;;;5084778;28;20730;-75
2024/03/14 12:23:28;;;;;;;0.68;0.65;;;20.10;99.00;;;;;;5092514;28;20514;-75
2024/03/14 12:26:01;;;;;;;0.65;0.65;;;19.90;99.20;;;;;;5080119;28;20056;-75
2024/03/14 12:28:31;;;;;;;2.35;1.45;;;19.80;99.70;;;;;;5093528;28;20028;-75
2024/03/14 12:31:00;;;;;;;3.80;1.45;;;19.70;99.90;;;;;;5091944;28;20023;-72
2024/03/14 12:33:27;;;;;;;3.35;1.10;;;19.60;99.90;;;;;;5042491;28;20032;-72
2024/03/14 12:35:54;;;;;;;0.95;0.63;;;19.60;99.70;;;;;;5091789;28;20387;-72
2024/03/14 12:38:23;;;;;;;1.00;0.93;;;19.80;99.10;;;;;;5093430;28;20097;-75
2024/03/14 12:40:56;;;;;;;3.35;1.20;;;20.10;99.20;;;;;;5092451;28;20028;-75
2024/03/14 12:43:21;;;;;;;3.10;1.17;;;20.60;98.70;;;;;;5091423;28;20016;-74
2024/03/14 12:45:51;;;;;;;2.05;0.98;;;21.20;98.20;;;;;;5074031;28;20020;-75
2024/03/14 12:48:19;;;;;;;0.98;0.70;;;21.60;97.50;;;;;;5090611;28;20051;-75
2024/03/14 12:50:46;;;;;;;1.42;0.60;;;21.90;96.00;;;;;;5091314;28;20024;-74
2024/03/14 12:53:21;;;;;;;0.75;0.65;;;22.30;95.50;;;;;;5084427;28;20019;-74
2024/03/14 12:55:51;;;;;;;1.02;0.80;;;23.00;99.90;;;;;;5079451;28;20024;-74
2024/03/14 12:58:21;;;;;;;11.03;1.13;;;;;;;;;;5092171;28;20052;-74